sensor_id;sensor_type;location;lat;lon;timestamp;P1;durP1;ratioP1;P2;durP2;ratioP2
4055;SDS011;2043;52.184;8.690;2023-02-21T00:01:39;70.10;;;30.83;;
4055;SDS011;2043;52.184;8.690;2023-02-21T00:04:25;73.67;;;32.33;;
4055;SDS011;2043;52.184;8.690;2023-02-21T00:07:10;71.13;;;30.90;;
4055;SDS011;2043;52.184;8.690;2023-02-21T00:09:56;68.30;;;31.27;;
4055;SDS011;2043;52.184;8.690;2023-02-21T00:12:41;64.80;;;29.77;;
4055;SDS011;2043;52.184;8.690;2023-02-21T00:15:27;72.50;;;30.50;;
4055;SDS011;2043;52.184;8.690;2023-02-21T00:18:12;65.57;;;29.30;;
4055;SDS011;2043;52.184;8.690;2023-02-21T00:20:58;69.40;;;29.20;;
4055;SDS011;2043;52.184;8.690;2023-02-21T00:23:43;63.27;;;29.40;;
4055;SDS011;2043;52.184;8.690;2023-02-21T00:26:29;71.30;;;29.43;;
4055;SDS011;2043;52.184;8.690;2023-02-21T00:29:15;63.10;;;28.37;;
4055;SDS011;2043;52.184;8.690;2023-02-21T00:32:00;64.20;;;30.40;;
4055;SDS011;2043;52.184;8.690;2023-02-21T00:34:45;64.17;;;28.23;;
4055;SDS011;2043;52.184;8.690;2023-02-21T00:37:31;64.50;;;29.67;;
4055;SDS011;2043;52.184;8.690;2023-02-21T00:40:16;86.37;;;31.93;;
4055;SDS011;2043;52.184;8.690;2023-02-21T00:43:02;69.80;;;32.63;;
4055;SDS011;2043;52.184;8.690;2023-02-21T00:45:47;71.87;;;31.87;;
4055;SDS011;2043;52.184;8.690;2023-02-21T00:48:33;72.20;;;32.47;;
4055;SDS011;2043;52.184;8.690;2023-02-21T00:51:18;73.93;;;33.27;;
4055;SDS011;2043;52.184;8.690;2023-02-21T00:54:03;86.07;;;35.20;;
4055;SDS011;2043;52.184;8.690;2023-02-21T00:56:49;94.53;;;36.97;;
4055;SDS011;2043;52.184;8.690;2023-02-21T00:59:34;86.43;;;36.27;;
4055;SDS011;2043;52.184;8.690;2023-02-21T01:02:20;83.40;;;35.10;;
4055;SDS011;2043;52.184;8.690;2023-02-21T01:05:06;91.97;;;36.63;;
4055;SDS011;2043;52.184;8.690;2023-02-21T01:07:51;86.23;;;37.90;;
4055;SDS011;2043;52.184;8.690;2023-02-21T01:10:37;93.70;;;39.30;;
4055;SDS011;2043;52.184;8.690;2023-02-21T01:13:22;92.00;;;37.47;;
4055;SDS011;2043;52.184;8.690;2023-02-21T01:16:08;93.90;;;38.40;;
4055;SDS011;2043;52.184;8.690;2023-02-21T01:18:53;93.27;;;39.03;;
4055;SDS011;2043;52.184;8.690;2023-02-21T01:21:38;99.73;;;38.10;;
4055;SDS011;2043;52.184;8.690;2023-02-21T01:24:24;100.57;;;39.40;;
4055;SDS011;2043;52.184;8.690;2023-02-21T01:27:09;99.07;;;35.33;;
4055;SDS011;2043;52.184;8.690;2023-02-21T01:29:55;96.03;;;37.10;;
4055;SDS011;2043;52.184;8.690;2023-02-21T01:32:40;96.13;;;38.30;;
4055;SDS011;2043;52.184;8.690;2023-02-21T01:35:26;102.30;;;38.40;;
4055;SDS011;2043;52.184;8.690;2023-02-21T01:38:11;100.73;;;38.50;;
4055;SDS011;2043;52.184;8.690;2023-02-21T01:40:57;107.33;;;39.10;;
4055;SDS011;2043;52.184;8.690;2023-02-21T01:43:59;99.00;;;40.50;;
4055;SDS011;2043;52.184;8.690;2023-02-21T01:46:49;102.17;;;38.70;;
4055;SDS011;2043;52.184;8.690;2023-02-21T01:49:36;93.07;;;37.00;;
4055;SDS011;2043;52.184;8.690;2023-02-21T01:52:24;104.43;;;38.40;;
4055;SDS011;2043;52.184;8.690;2023-02-21T01:55:10;102.10;;;38.33;;
4055;SDS011;2043;52.184;8.690;2023-02-21T01:57:55;109.53;;;40.50;;
4055;SDS011;2043;52.184;8.690;2023-02-21T02:00:41;106.63;;;40.67;;
4055;SDS011;2043;52.184;8.690;2023-02-21T02:03:26;96.80;;;36.10;;
4055;SDS011;2043;52.184;8.690;2023-02-21T02:06:13;108.50;;;39.93;;
4055;SDS011;2043;52.184;8.690;2023-02-21T02:09:06;103.10;;;38.77;;
4055;SDS011;2043;52.184;8.690;2023-02-21T02:29:49;97.60;;;40.33;;
4055;SDS011;2043;52.184;8.690;2023-02-21T02:32:36;95.80;;;37.83;;
4055;SDS011;2043;52.184;8.690;2023-02-21T02:35:28;95.17;;;38.63;;
4055;SDS011;2043;52.184;8.690;2023-02-21T02:38:08;89.57;;;38.47;;
4055;SDS011;2043;52.184;8.690;2023-02-21T02:41:12;104.70;;;39.90;;
4055;SDS011;2043;52.184;8.690;2023-02-21T02:43:50;110.13;;;39.47;;
4055;SDS011;2043;52.184;8.690;2023-02-21T02:46:24;92.63;;;38.33;;
4055;SDS011;2043;52.184;8.690;2023-02-21T02:51:26;96.00;;;38.53;;
4055;SDS011;2043;52.184;8.690;2023-02-21T02:53:53;92.70;;;37.00;;
4055;SDS011;2043;52.184;8.690;2023-02-21T02:56:20;92.50;;;38.83;;
4055;SDS011;2043;52.184;8.690;2023-02-21T02:58:50;109.30;;;40.63;;
4055;SDS011;2043;52.184;8.690;2023-02-21T03:15:23;104.57;;;39.90;;
4055;SDS011;2043;52.184;8.690;2023-02-21T03:18:03;97.73;;;38.37;;
4055;SDS011;2043;52.184;8.690;2023-02-21T03:20:36;93.40;;;37.63;;
4055;SDS011;2043;52.184;8.690;2023-02-21T03:23:05;103.63;;;43.13;;
4055;SDS011;2043;52.184;8.690;2023-02-21T03:25:32;92.43;;;38.67;;
4055;SDS011;2043;52.184;8.690;2023-02-21T03:28:01;93.90;;;37.87;;
4055;SDS011;2043;52.184;8.690;2023-02-21T03:30:28;89.40;;;35.77;;
4055;SDS011;2043;52.184;8.690;2023-02-21T03:32:55;93.97;;;37.37;;
4055;SDS011;2043;52.184;8.690;2023-02-21T03:35:23;97.33;;;38.10;;
4055;SDS011;2043;52.184;8.690;2023-02-21T03:37:55;91.77;;;38.20;;
4055;SDS011;2043;52.184;8.690;2023-02-21T03:40:25;90.47;;;37.40;;
4055;SDS011;2043;52.184;8.690;2023-02-21T03:42:54;107.53;;;39.50;;
4055;SDS011;2043;52.184;8.690;2023-02-21T03:45:22;89.90;;;36.53;;
4055;SDS011;2043;52.184;8.690;2023-02-21T03:47:49;91.70;;;38.00;;
4055;SDS011;2043;52.184;8.690;2023-02-21T03:50:16;90.90;;;37.53;;
4055;SDS011;2043;52.184;8.690;2023-02-21T03:52:43;93.93;;;39.03;;
4055;SDS011;2043;52.184;8.690;2023-02-21T03:55:11;97.00;;;39.37;;
4055;SDS011;2043;52.184;8.690;2023-02-21T03:57:38;93.87;;;38.10;;
4055;SDS011;2043;52.184;8.690;2023-02-21T04:00:05;94.77;;;39.03;;
4055;SDS011;2043;52.184;8.690;2023-02-21T04:02:32;91.87;;;38.77;;
4055;SDS011;2043;52.184;8.690;2023-02-21T04:04:59;95.97;;;38.00;;
4055;SDS011;2043;52.184;8.690;2023-02-21T04:07:25;98.73;;;38.63;;
4055;SDS011;2043;52.184;8.690;2023-02-21T04:09:52;105.43;;;39.33;;
4055;SDS011;2043;52.184;8.690;2023-02-21T04:12:19;104.67;;;42.97;;
4055;SDS011;2043;52.184;8.690;2023-02-21T04:14:46;99.10;;;38.10;;
4055;SDS011;2043;52.184;8.690;2023-02-21T04:17:13;119.50;;;40.57;;
4055;SDS011;2043;52.184;8.690;2023-02-21T04:19:41;101.63;;;39.70;;
4055;SDS011;2043;52.184;8.690;2023-02-21T04:22:08;102.27;;;40.80;;
4055;SDS011;2043;52.184;8.690;2023-02-21T04:24:35;102.30;;;38.20;;
4055;SDS011;2043;52.184;8.690;2023-02-21T04:27:01;105.93;;;39.23;;
4055;SDS011;2043;52.184;8.690;2023-02-21T04:29:28;99.37;;;39.27;;
4055;SDS011;2043;52.184;8.690;2023-02-21T04:31:55;104.87;;;41.17;;
4055;SDS011;2043;52.184;8.690;2023-02-21T04:34:22;116.80;;;39.67;;
4055;SDS011;2043;52.184;8.690;2023-02-21T04:36:49;105.27;;;40.13;;
4055;SDS011;2043;52.184;8.690;2023-02-21T04:39:16;114.83;;;42.20;;
4055;SDS011;2043;52.184;8.690;2023-02-21T04:41:43;109.07;;;41.93;;
4055;SDS011;2043;52.184;8.690;2023-02-21T04:44:11;108.50;;;39.30;;
4055;SDS011;2043;52.184;8.690;2023-02-21T04:46:38;115.00;;;39.20;;
4055;SDS011;2043;52.184;8.690;2023-02-21T04:49:04;116.83;;;42.20;;
4055;SDS011;2043;52.184;8.690;2023-02-21T04:51:31;107.00;;;42.43;;
4055;SDS011;2043;52.184;8.690;2023-02-21T04:53:58;115.27;;;42.43;;
4055;SDS011;2043;52.184;8.690;2023-02-21T04:56:25;116.57;;;41.50;;
4055;SDS011;2043;52.184;8.690;2023-02-21T04:58:54;111.67;;;42.70;;
4055;SDS011;2043;52.184;8.690;2023-02-21T05:01:21;114.47;;;41.40;;
4055;SDS011;2043;52.184;8.690;2023-02-21T05:03:51;118.63;;;42.20;;
4055;SDS011;2043;52.184;8.690;2023-02-21T05:06:19;110.63;;;41.20;;
4055;SDS011;2043;52.184;8.690;2023-02-21T05:08:47;112.97;;;41.17;;
4055;SDS011;2043;52.184;8.690;2023-02-21T05:11:15;112.33;;;44.00;;
4055;SDS011;2043;52.184;8.690;2023-02-21T05:13:43;107.87;;;42.27;;
4055;SDS011;2043;52.184;8.690;2023-02-21T05:16:10;110.63;;;41.10;;
4055;SDS011;2043;52.184;8.690;2023-02-21T05:18:37;109.43;;;41.33;;
4055;SDS011;2043;52.184;8.690;2023-02-21T05:21:06;117.40;;;40.83;;
4055;SDS011;2043;52.184;8.690;2023-02-21T05:23:33;114.43;;;41.53;;
4055;SDS011;2043;52.184;8.690;2023-02-21T05:26:09;119.20;;;38.77;;
4055;SDS011;2043;52.184;8.690;2023-02-21T05:28:38;114.47;;;42.20;;
4055;SDS011;2043;52.184;8.690;2023-02-21T05:31:06;120.47;;;39.93;;
4055;SDS011;2043;52.184;8.690;2023-02-21T05:33:33;111.77;;;40.97;;
4055;SDS011;2043;52.184;8.690;2023-02-21T05:36:00;100.93;;;40.93;;
4055;SDS011;2043;52.184;8.690;2023-02-21T05:38:27;104.67;;;39.40;;
4055;SDS011;2043;52.184;8.690;2023-02-21T05:40:53;112.40;;;40.83;;
4055;SDS011;2043;52.184;8.690;2023-02-21T05:43:20;100.93;;;38.30;;
4055;SDS011;2043;52.184;8.690;2023-02-21T05:45:47;107.33;;;40.20;;
4055;SDS011;2043;52.184;8.690;2023-02-21T05:48:14;102.83;;;39.00;;
4055;SDS011;2043;52.184;8.690;2023-02-21T05:50:41;116.97;;;41.70;;
4055;SDS011;2043;52.184;8.690;2023-02-21T05:53:07;110.20;;;38.87;;
4055;SDS011;2043;52.184;8.690;2023-02-21T05:55:35;113.80;;;39.80;;
4055;SDS011;2043;52.184;8.690;2023-02-21T05:58:02;110.67;;;39.33;;
4055;SDS011;2043;52.184;8.690;2023-02-21T06:00:29;118.27;;;42.20;;
4055;SDS011;2043;52.184;8.690;2023-02-21T06:02:56;127.27;;;41.30;;
4055;SDS011;2043;52.184;8.690;2023-02-21T06:05:23;121.47;;;41.93;;
4055;SDS011;2043;52.184;8.690;2023-02-21T06:07:50;118.47;;;40.43;;
4055;SDS011;2043;52.184;8.690;2023-02-21T06:10:17;118.60;;;42.70;;
4055;SDS011;2043;52.184;8.690;2023-02-21T06:12:45;124.30;;;39.47;;
4055;SDS011;2043;52.184;8.690;2023-02-21T06:15:12;129.03;;;43.63;;
4055;SDS011;2043;52.184;8.690;2023-02-21T06:17:40;127.90;;;43.00;;
4055;SDS011;2043;52.184;8.690;2023-02-21T06:20:09;134.53;;;44.57;;
4055;SDS011;2043;52.184;8.690;2023-02-21T06:22:42;128.50;;;41.73;;
4055;SDS011;2043;52.184;8.690;2023-02-21T06:25:09;134.30;;;43.63;;
4055;SDS011;2043;52.184;8.690;2023-02-21T06:27:36;123.27;;;41.40;;
4055;SDS011;2043;52.184;8.690;2023-02-21T06:30:03;123.77;;;41.67;;
4055;SDS011;2043;52.184;8.690;2023-02-21T06:32:30;127.33;;;43.13;;
4055;SDS011;2043;52.184;8.690;2023-02-21T06:34:57;126.53;;;40.00;;
4055;SDS011;2043;52.184;8.690;2023-02-21T06:37:24;132.60;;;41.67;;
4055;SDS011;2043;52.184;8.690;2023-02-21T06:39:51;120.33;;;39.70;;
4055;SDS011;2043;52.184;8.690;2023-02-21T06:42:17;123.80;;;41.90;;
4055;SDS011;2043;52.184;8.690;2023-02-21T06:44:44;131.53;;;43.07;;
4055;SDS011;2043;52.184;8.690;2023-02-21T06:47:12;137.57;;;44.03;;
4055;SDS011;2043;52.184;8.690;2023-02-21T06:49:39;134.73;;;42.27;;
4055;SDS011;2043;52.184;8.690;2023-02-21T06:52:07;141.13;;;43.37;;
4055;SDS011;2043;52.184;8.690;2023-02-21T06:54:34;144.60;;;45.70;;
4055;SDS011;2043;52.184;8.690;2023-02-21T06:57:01;148.43;;;43.77;;
4055;SDS011;2043;52.184;8.690;2023-02-21T06:59:28;154.17;;;43.60;;
4055;SDS011;2043;52.184;8.690;2023-02-21T07:01:55;144.43;;;43.57;;
4055;SDS011;2043;52.184;8.690;2023-02-21T07:04:22;154.53;;;44.90;;
4055;SDS011;2043;52.184;8.690;2023-02-21T07:06:50;142.97;;;43.83;;
4055;SDS011;2043;52.184;8.690;2023-02-21T07:09:17;144.27;;;44.33;;
4055;SDS011;2043;52.184;8.690;2023-02-21T07:11:44;140.70;;;43.00;;
4055;SDS011;2043;52.184;8.690;2023-02-21T07:14:12;141.50;;;40.83;;
4055;SDS011;2043;52.184;8.690;2023-02-21T07:16:40;141.33;;;42.00;;
4055;SDS011;2043;52.184;8.690;2023-02-21T07:19:06;154.20;;;43.37;;
4055;SDS011;2043;52.184;8.690;2023-02-21T07:21:33;164.70;;;45.30;;
4055;SDS011;2043;52.184;8.690;2023-02-21T07:24:00;139.23;;;40.70;;
4055;SDS011;2043;52.184;8.690;2023-02-21T07:26:27;152.17;;;43.80;;
4055;SDS011;2043;52.184;8.690;2023-02-21T07:28:53;139.27;;;41.13;;
4055;SDS011;2043;52.184;8.690;2023-02-21T07:31:20;131.37;;;39.00;;
4055;SDS011;2043;52.184;8.690;2023-02-21T07:33:47;123.13;;;39.10;;
4055;SDS011;2043;52.184;8.690;2023-02-21T07:36:14;139.87;;;40.67;;
4055;SDS011;2043;52.184;8.690;2023-02-21T07:38:41;126.07;;;40.43;;
4055;SDS011;2043;52.184;8.690;2023-02-21T07:41:08;136.47;;;41.07;;
4055;SDS011;2043;52.184;8.690;2023-02-21T07:43:34;123.10;;;39.30;;
4055;SDS011;2043;52.184;8.690;2023-02-21T07:46:01;127.47;;;38.97;;
4055;SDS011;2043;52.184;8.690;2023-02-21T07:48:28;134.37;;;40.67;;
4055;SDS011;2043;52.184;8.690;2023-02-21T07:50:55;120.03;;;37.57;;
4055;SDS011;2043;52.184;8.690;2023-02-21T07:53:21;124.77;;;37.97;;
4055;SDS011;2043;52.184;8.690;2023-02-21T07:55:48;107.07;;;37.17;;
4055;SDS011;2043;52.184;8.690;2023-02-21T07:58:15;108.87;;;35.10;;
4055;SDS011;2043;52.184;8.690;2023-02-21T08:00:42;118.50;;;37.80;;
4055;SDS011;2043;52.184;8.690;2023-02-21T08:03:11;113.30;;;36.20;;
4055;SDS011;2043;52.184;8.690;2023-02-21T08:05:38;107.53;;;36.43;;
4055;SDS011;2043;52.184;8.690;2023-02-21T08:08:06;109.50;;;36.40;;
4055;SDS011;2043;52.184;8.690;2023-02-21T08:10:35;95.07;;;31.37;;
4055;SDS011;2043;52.184;8.690;2023-02-21T08:13:02;87.77;;;30.40;;
4055;SDS011;2043;52.184;8.690;2023-02-21T08:15:29;94.23;;;33.07;;
4055;SDS011;2043;52.184;8.690;2023-02-21T08:17:56;88.87;;;31.40;;
4055;SDS011;2043;52.184;8.690;2023-02-21T08:20:23;80.93;;;29.87;;
4055;SDS011;2043;52.184;8.690;2023-02-21T08:22:50;86.73;;;30.50;;
4055;SDS011;2043;52.184;8.690;2023-02-21T08:25:17;70.00;;;28.57;;
4055;SDS011;2043;52.184;8.690;2023-02-21T08:27:44;86.00;;;29.87;;
4055;SDS011;2043;52.184;8.690;2023-02-21T08:30:12;84.80;;;29.63;;
4055;SDS011;2043;52.184;8.690;2023-02-21T08:32:41;72.90;;;28.03;;
4055;SDS011;2043;52.184;8.690;2023-02-21T08:35:09;81.83;;;30.00;;
4055;SDS011;2043;52.184;8.690;2023-02-21T08:37:43;84.13;;;29.73;;
4055;SDS011;2043;52.184;8.690;2023-02-21T08:40:14;83.60;;;31.07;;
4055;SDS011;2043;52.184;8.690;2023-02-21T08:42:47;87.03;;;31.40;;
4055;SDS011;2043;52.184;8.690;2023-02-21T08:45:18;86.00;;;30.53;;
4055;SDS011;2043;52.184;8.690;2023-02-21T08:47:47;92.47;;;30.40;;
4055;SDS011;2043;52.184;8.690;2023-02-21T08:50:14;82.73;;;29.57;;
4055;SDS011;2043;52.184;8.690;2023-02-21T08:52:41;86.63;;;30.17;;
4055;SDS011;2043;52.184;8.690;2023-02-21T08:55:08;89.10;;;31.10;;
4055;SDS011;2043;52.184;8.690;2023-02-21T08:57:34;92.20;;;31.43;;
4055;SDS011;2043;52.184;8.690;2023-02-21T09:00:02;74.13;;;28.87;;
4055;SDS011;2043;52.184;8.690;2023-02-21T09:02:31;84.77;;;29.70;;
4055;SDS011;2043;52.184;8.690;2023-02-21T09:04:58;85.20;;;29.40;;
4055;SDS011;2043;52.184;8.690;2023-02-21T09:07:25;69.37;;;27.87;;
4055;SDS011;2043;52.184;8.690;2023-02-21T09:09:53;78.57;;;28.87;;
4055;SDS011;2043;52.184;8.690;2023-02-21T09:12:20;77.07;;;26.90;;
4055;SDS011;2043;52.184;8.690;2023-02-21T09:14:47;83.97;;;28.73;;
4055;SDS011;2043;52.184;8.690;2023-02-21T09:17:14;70.00;;;27.23;;
4055;SDS011;2043;52.184;8.690;2023-02-21T09:19:41;63.87;;;26.60;;
4055;SDS011;2043;52.184;8.690;2023-02-21T09:22:08;62.60;;;25.80;;
4055;SDS011;2043;52.184;8.690;2023-02-21T09:24:36;61.83;;;25.57;;
4055;SDS011;2043;52.184;8.690;2023-02-21T09:27:03;63.67;;;24.57;;
4055;SDS011;2043;52.184;8.690;2023-02-21T09:29:31;61.93;;;25.47;;
4055;SDS011;2043;52.184;8.690;2023-02-21T09:32:11;57.47;;;23.60;;
4055;SDS011;2043;52.184;8.690;2023-02-21T09:34:39;56.73;;;23.03;;
4055;SDS011;2043;52.184;8.690;2023-02-21T09:37:05;58.70;;;23.90;;
4055;SDS011;2043;52.184;8.690;2023-02-21T09:39:32;51.37;;;22.23;;
4055;SDS011;2043;52.184;8.690;2023-02-21T09:42:01;51.87;;;22.23;;
4055;SDS011;2043;52.184;8.690;2023-02-21T09:44:28;54.80;;;23.03;;
4055;SDS011;2043;52.184;8.690;2023-02-21T09:46:57;51.37;;;23.10;;
4055;SDS011;2043;52.184;8.690;2023-02-21T09:49:29;57.23;;;23.57;;
4055;SDS011;2043;52.184;8.690;2023-02-21T09:52:05;54.57;;;21.20;;
4055;SDS011;2043;52.184;8.690;2023-02-21T09:54:39;51.60;;;22.60;;
4055;SDS011;2043;52.184;8.690;2023-02-21T09:57:11;52.87;;;22.07;;
4055;SDS011;2043;52.184;8.690;2023-02-21T09:59:40;62.87;;;22.57;;
4055;SDS011;2043;52.184;8.690;2023-02-21T10:21:34;51.80;;;22.70;;
4055;SDS011;2043;52.184;8.690;2023-02-21T10:24:14;48.47;;;21.73;;
4055;SDS011;2043;52.184;8.690;2023-02-21T10:27:04;51.30;;;20.97;;
4055;SDS011;2043;52.184;8.690;2023-02-21T10:32:09;46.77;;;22.00;;
4055;SDS011;2043;52.184;8.690;2023-02-21T10:34:36;57.10;;;22.90;;
4055;SDS011;2043;52.184;8.690;2023-02-21T10:37:05;56.73;;;23.30;;
4055;SDS011;2043;52.184;8.690;2023-02-21T10:40:03;51.30;;;22.87;;
4055;SDS011;2043;52.184;8.690;2023-02-21T10:42:48;56.73;;;23.90;;
4055;SDS011;2043;52.184;8.690;2023-02-21T10:45:19;55.60;;;24.00;;
4055;SDS011;2043;52.184;8.690;2023-02-21T10:47:57;53.97;;;22.87;;
4055;SDS011;2043;52.184;8.690;2023-02-21T10:53:03;56.93;;;23.73;;
4055;SDS011;2043;52.184;8.690;2023-02-21T10:55:31;56.37;;;24.00;;
4055;SDS011;2043;52.184;8.690;2023-02-21T10:58:05;55.13;;;23.10;;
4055;SDS011;2043;52.184;8.690;2023-02-21T11:00:36;54.03;;;23.50;;
4055;SDS011;2043;52.184;8.690;2023-02-21T11:03:25;56.50;;;23.10;;
4055;SDS011;2043;52.184;8.690;2023-02-21T11:05:56;57.53;;;23.30;;
4055;SDS011;2043;52.184;8.690;2023-02-21T11:08:37;57.93;;;23.87;;
4055;SDS011;2043;52.184;8.690;2023-02-21T11:11:06;58.37;;;23.80;;
4055;SDS011;2043;52.184;8.690;2023-02-21T11:13:34;53.93;;;23.03;;
4055;SDS011;2043;52.184;8.690;2023-02-21T11:19:05;52.03;;;22.90;;
4055;SDS011;2043;52.184;8.690;2023-02-21T11:21:32;56.40;;;23.10;;
4055;SDS011;2043;52.184;8.690;2023-02-21T11:23:59;61.30;;;24.63;;
4055;SDS011;2043;52.184;8.690;2023-02-21T11:26:36;63.70;;;24.40;;
4055;SDS011;2043;52.184;8.690;2023-02-21T11:29:14;58.73;;;24.53;;
4055;SDS011;2043;52.184;8.690;2023-02-21T11:31:44;54.60;;;24.03;;
4055;SDS011;2043;52.184;8.690;2023-02-21T11:34:12;63.00;;;26.20;;
4055;SDS011;2043;52.184;8.690;2023-02-21T11:36:41;53.90;;;24.13;;
4055;SDS011;2043;52.184;8.690;2023-02-21T11:39:23;57.83;;;25.03;;
4055;SDS011;2043;52.184;8.690;2023-02-21T11:41:57;64.70;;;25.43;;
4055;SDS011;2043;52.184;8.690;2023-02-21T11:44:48;56.43;;;24.67;;
4055;SDS011;2043;52.184;8.690;2023-02-21T11:47:30;59.30;;;25.60;;
4055;SDS011;2043;52.184;8.690;2023-02-21T11:50:22;65.27;;;25.43;;
4055;SDS011;2043;52.184;8.690;2023-02-21T11:53:03;67.40;;;25.53;;
4055;SDS011;2043;52.184;8.690;2023-02-21T11:55:31;65.40;;;26.63;;
4055;SDS011;2043;52.184;8.690;2023-02-21T11:58:04;67.73;;;27.50;;
4055;SDS011;2043;52.184;8.690;2023-02-21T12:01:02;66.03;;;27.27;;
4055;SDS011;2043;52.184;8.690;2023-02-21T12:03:46;64.83;;;26.93;;
4055;SDS011;2043;52.184;8.690;2023-02-21T12:09:37;62.03;;;27.03;;
4055;SDS011;2043;52.184;8.690;2023-02-21T12:17:51;63.43;;;26.87;;
4055;SDS011;2043;52.184;8.690;2023-02-21T12:52:05;73.37;;;26.93;;
4055;SDS011;2043;52.184;8.690;2023-02-21T12:55:00;67.97;;;26.60;;
4055;SDS011;2043;52.184;8.690;2023-02-21T12:57:30;69.07;;;26.30;;
4055;SDS011;2043;52.184;8.690;2023-02-21T13:06:13;61.73;;;24.97;;
4055;SDS011;2043;52.184;8.690;2023-02-21T13:11:35;58.03;;;23.73;;
4055;SDS011;2043;52.184;8.690;2023-02-21T13:14:27;57.40;;;24.07;;
4055;SDS011;2043;52.184;8.690;2023-02-21T13:17:08;59.10;;;24.30;;
4055;SDS011;2043;52.184;8.690;2023-02-21T13:19:51;61.30;;;24.73;;
4055;SDS011;2043;52.184;8.690;2023-02-21T13:30:41;56.30;;;23.07;;
4055;SDS011;2043;52.184;8.690;2023-02-21T13:33:21;57.87;;;24.00;;
4055;SDS011;2043;52.184;8.690;2023-02-21T13:35:57;54.00;;;22.90;;
4055;SDS011;2043;52.184;8.690;2023-02-21T13:38:30;57.40;;;23.37;;
4055;SDS011;2043;52.184;8.690;2023-02-21T13:41:05;60.43;;;25.10;;
4055;SDS011;2043;52.184;8.690;2023-02-21T13:43:46;57.20;;;23.60;;
4055;SDS011;2043;52.184;8.690;2023-02-21T13:52:13;55.07;;;22.20;;
4055;SDS011;2043;52.184;8.690;2023-02-21T13:57:39;52.77;;;21.97;;
4055;SDS011;2043;52.184;8.690;2023-02-21T14:19:10;52.50;;;21.37;;
4055;SDS011;2043;52.184;8.690;2023-02-21T14:21:58;54.10;;;21.33;;
4055;SDS011;2043;52.184;8.690;2023-02-21T14:24:35;50.10;;;22.07;;
4055;SDS011;2043;52.184;8.690;2023-02-21T14:27:29;54.73;;;21.67;;
4055;SDS011;2043;52.184;8.690;2023-02-21T14:40:32;64.17;;;25.27;;
4055;SDS011;2043;52.184;8.690;2023-02-21T14:48:36;63.03;;;22.50;;
4055;SDS011;2043;52.184;8.690;2023-02-21T14:56:46;64.10;;;25.30;;
4055;SDS011;2043;52.184;8.690;2023-02-21T15:02:38;78.27;;;27.17;;
4055;SDS011;2043;52.184;8.690;2023-02-21T15:05:15;70.10;;;25.63;;
4055;SDS011;2043;52.184;8.690;2023-02-21T15:12:45;71.30;;;25.90;;
4055;SDS011;2043;52.184;8.690;2023-02-21T15:17:54;67.57;;;25.83;;
4055;SDS011;2043;52.184;8.690;2023-02-21T15:23:01;66.23;;;25.00;;
4055;SDS011;2043;52.184;8.690;2023-02-21T15:25:42;67.07;;;25.70;;
4055;SDS011;2043;52.184;8.690;2023-02-21T15:28:18;68.60;;;25.37;;
4055;SDS011;2043;52.184;8.690;2023-02-21T15:31:21;70.13;;;27.13;;
4055;SDS011;2043;52.184;8.690;2023-02-21T15:33:43;64.23;;;24.23;;
4055;SDS011;2043;52.184;8.690;2023-02-21T15:38:52;63.57;;;24.33;;
4055;SDS011;2043;52.184;8.690;2023-02-21T15:41:52;67.40;;;23.93;;
4055;SDS011;2043;52.184;8.690;2023-02-21T15:47:06;60.53;;;24.30;;
4055;SDS011;2043;52.184;8.690;2023-02-21T15:49:59;72.67;;;25.93;;
4055;SDS011;2043;52.184;8.690;2023-02-21T15:52:28;67.97;;;25.33;;
4055;SDS011;2043;52.184;8.690;2023-02-21T16:00:47;59.10;;;23.40;;
4055;SDS011;2043;52.184;8.690;2023-02-21T16:03:39;60.30;;;23.63;;
4055;SDS011;2043;52.184;8.690;2023-02-21T16:14:14;61.43;;;22.63;;
4055;SDS011;2043;52.184;8.690;2023-02-21T16:16:44;54.23;;;22.60;;
4055;SDS011;2043;52.184;8.690;2023-02-21T16:19:12;59.23;;;22.73;;
4055;SDS011;2043;52.184;8.690;2023-02-21T16:21:39;57.97;;;24.17;;
4055;SDS011;2043;52.184;8.690;2023-02-21T16:24:40;57.40;;;23.80;;
4055;SDS011;2043;52.184;8.690;2023-02-21T16:27:03;49.33;;;21.57;;
4055;SDS011;2043;52.184;8.690;2023-02-21T16:29:34;59.40;;;23.60;;
4055;SDS011;2043;52.184;8.690;2023-02-21T16:32:01;62.63;;;24.77;;
4055;SDS011;2043;52.184;8.690;2023-02-21T16:34:29;64.23;;;25.43;;
4055;SDS011;2043;52.184;8.690;2023-02-21T16:37:02;61.20;;;24.57;;
4055;SDS011;2043;52.184;8.690;2023-02-21T16:39:30;62.03;;;25.73;;
4055;SDS011;2043;52.184;8.690;2023-02-21T16:41:57;58.83;;;24.23;;
4055;SDS011;2043;52.184;8.690;2023-02-21T16:44:24;65.27;;;25.43;;
4055;SDS011;2043;52.184;8.690;2023-02-21T16:46:52;63.37;;;25.13;;
4055;SDS011;2043;52.184;8.690;2023-02-21T16:49:19;65.67;;;25.90;;
4055;SDS011;2043;52.184;8.690;2023-02-21T16:51:46;57.93;;;24.97;;
4055;SDS011;2043;52.184;8.690;2023-02-21T16:54:14;73.97;;;26.43;;
4055;SDS011;2043;52.184;8.690;2023-02-21T16:56:41;74.93;;;27.40;;
4055;SDS011;2043;52.184;8.690;2023-02-21T16:59:12;65.20;;;25.73;;
4055;SDS011;2043;52.184;8.690;2023-02-21T17:01:41;61.37;;;26.07;;
4055;SDS011;2043;52.184;8.690;2023-02-21T17:04:15;67.83;;;27.27;;
4055;SDS011;2043;52.184;8.690;2023-02-21T17:06:50;65.47;;;27.07;;
4055;SDS011;2043;52.184;8.690;2023-02-21T17:09:26;74.83;;;28.97;;
4055;SDS011;2043;52.184;8.690;2023-02-21T17:11:54;80.30;;;30.00;;
4055;SDS011;2043;52.184;8.690;2023-02-21T17:14:21;77.03;;;31.27;;
4055;SDS011;2043;52.184;8.690;2023-02-21T17:16:48;63.23;;;27.47;;
4055;SDS011;2043;52.184;8.690;2023-02-21T17:19:16;68.10;;;27.73;;
4055;SDS011;2043;52.184;8.690;2023-02-21T17:21:46;67.70;;;28.37;;
4055;SDS011;2043;52.184;8.690;2023-02-21T17:24:13;68.50;;;29.80;;
4055;SDS011;2043;52.184;8.690;2023-02-21T17:26:41;79.13;;;33.40;;
4055;SDS011;2043;52.184;8.690;2023-02-21T17:29:08;80.37;;;32.57;;
4055;SDS011;2043;52.184;8.690;2023-02-21T17:31:35;73.40;;;29.07;;
4055;SDS011;2043;52.184;8.690;2023-02-21T17:34:02;75.97;;;30.20;;
4055;SDS011;2043;52.184;8.690;2023-02-21T17:36:29;75.80;;;30.87;;
4055;SDS011;2043;52.184;8.690;2023-02-21T17:38:56;71.70;;;28.80;;
4055;SDS011;2043;52.184;8.690;2023-02-21T17:41:24;73.70;;;29.10;;
4055;SDS011;2043;52.184;8.690;2023-02-21T17:43:52;78.90;;;30.73;;
4055;SDS011;2043;52.184;8.690;2023-02-21T17:46:19;85.97;;;31.30;;
4055;SDS011;2043;52.184;8.690;2023-02-21T17:48:46;77.60;;;30.40;;
4055;SDS011;2043;52.184;8.690;2023-02-21T17:51:17;71.50;;;29.43;;
4055;SDS011;2043;52.184;8.690;2023-02-21T17:53:46;79.20;;;30.03;;
4055;SDS011;2043;52.184;8.690;2023-02-21T17:56:22;64.23;;;27.63;;
4055;SDS011;2043;52.184;8.690;2023-02-21T17:58:50;68.27;;;28.07;;
4055;SDS011;2043;52.184;8.690;2023-02-21T18:01:17;73.67;;;29.80;;
4055;SDS011;2043;52.184;8.690;2023-02-21T18:03:48;74.43;;;30.03;;
4055;SDS011;2043;52.184;8.690;2023-02-21T18:06:15;73.37;;;30.67;;
4055;SDS011;2043;52.184;8.690;2023-02-21T18:08:42;71.87;;;30.83;;
4055;SDS011;2043;52.184;8.690;2023-02-21T18:11:13;69.60;;;30.53;;
4055;SDS011;2043;52.184;8.690;2023-02-21T18:13:42;79.87;;;34.57;;
4055;SDS011;2043;52.184;8.690;2023-02-21T18:16:09;86.33;;;33.20;;
4055;SDS011;2043;52.184;8.690;2023-02-21T18:18:36;73.57;;;31.80;;
4055;SDS011;2043;52.184;8.690;2023-02-21T18:21:03;75.20;;;30.13;;
4055;SDS011;2043;52.184;8.690;2023-02-21T18:23:31;79.57;;;30.47;;
4055;SDS011;2043;52.184;8.690;2023-02-21T18:25:59;73.97;;;31.40;;
4055;SDS011;2043;52.184;8.690;2023-02-21T18:28:27;73.53;;;30.57;;
4055;SDS011;2043;52.184;8.690;2023-02-21T18:30:54;81.20;;;31.70;;
4055;SDS011;2043;52.184;8.690;2023-02-21T18:33:22;78.80;;;32.30;;
4055;SDS011;2043;52.184;8.690;2023-02-21T18:35:55;93.47;;;37.77;;
4055;SDS011;2043;52.184;8.690;2023-02-21T18:38:24;89.17;;;34.20;;